createdAt,value
2019-06-10T00:01:16.891Z,5.70
2019-06-10T00:03:51.818Z,5.40
2019-06-10T00:06:22.985Z,6.03
2019-06-10T00:08:58.138Z,5.40
2019-06-10T00:11:31.492Z,5.43
2019-06-10T00:14:04.575Z,5.83
2019-06-10T00:16:37.627Z,6.73
2019-06-10T00:19:10.281Z,6.40
2019-06-10T00:21:43.627Z,5.50
2019-06-10T00:24:15.788Z,5.77
2019-06-10T00:26:51.126Z,5.40
2019-06-10T00:29:23.068Z,5.60
2019-06-10T00:31:56.254Z,5.60
2019-06-10T00:34:31.559Z,5.97
2019-06-10T00:37:06.303Z,5.50
2019-06-10T00:39:40.729Z,5.33
2019-06-10T00:42:15.010Z,5.70
2019-06-10T00:44:47.651Z,5.80
2019-06-10T00:47:21.208Z,5.70
2019-06-10T00:49:53.402Z,5.80
2019-06-10T00:52:25.881Z,5.80
2019-06-10T00:55:01.099Z,5.60
2019-06-10T00:57:32.197Z,5.83
2019-06-10T01:00:14.942Z,5.47
2019-06-10T01:02:41.080Z,5.57
2019-06-10T01:05:15.238Z,5.60
2019-06-10T01:07:46.914Z,5.57
2019-06-10T01:10:21.087Z,5.70
2019-06-10T01:12:52.910Z,5.63
2019-06-10T01:15:24.910Z,5.40
2019-06-10T01:17:56.836Z,5.93
2019-06-10T01:20:32.535Z,5.67
2019-06-10T01:23:06.953Z,6.00
2019-06-10T01:25:41.886Z,6.03
2019-06-10T01:28:16.802Z,5.90
2019-06-10T01:30:48.321Z,6.27
2019-06-10T01:33:21.216Z,6.13
2019-06-10T01:35:54.136Z,6.20
2019-06-10T01:38:31.695Z,5.63
2019-06-10T01:41:03.392Z,6.10
2019-06-10T01:43:35.970Z,6.27
2019-06-10T01:46:08.642Z,6.40
2019-06-10T01:48:47.874Z,6.50
2019-06-10T01:51:21.365Z,6.40
2019-06-10T01:53:53.865Z,6.17
2019-06-10T01:56:26.156Z,6.37
2019-06-10T01:58:58.812Z,6.47
2019-06-10T02:01:55.837Z,6.77
2019-06-10T02:04:31.772Z,6.40
2019-06-10T02:07:02.310Z,6.33
2019-06-10T02:09:34.484Z,6.70
2019-06-10T02:12:06.470Z,6.13
2019-06-10T02:14:38.517Z,7.10
2019-06-10T02:17:13.084Z,6.33
2019-06-10T02:19:46.758Z,6.60
2019-06-10T02:22:20.572Z,6.13
2019-06-10T02:24:55.294Z,6.90
2019-06-10T02:27:27.345Z,6.30
2019-06-10T02:30:01.799Z,6.10
2019-06-10T02:32:37.778Z,5.90
2019-06-10T02:35:14.656Z,6.70
2019-06-10T02:37:44.529Z,6.93
2019-06-10T02:40:19.287Z,6.83
2019-06-10T02:42:53.907Z,6.50
2019-06-10T02:45:32.402Z,6.60
2019-06-10T02:47:58.819Z,6.27
2019-06-10T02:51:15.792Z,6.03
2019-06-10T02:53:48.774Z,7.10
2019-06-10T02:56:39.224Z,6.43
2019-06-10T02:59:13.233Z,6.47
2019-06-10T03:01:45.529Z,7.33
2019-06-10T03:04:18.885Z,6.77
2019-06-10T03:06:54.274Z,6.53
2019-06-10T03:09:29.467Z,6.17
2019-06-10T03:11:59.907Z,6.97
2019-06-10T03:14:32.880Z,6.70
2019-06-10T03:17:08.355Z,6.47
2019-06-10T03:19:48.840Z,6.37
2019-06-10T03:22:14.220Z,6.93
2019-06-10T03:24:46.274Z,6.50
2019-06-10T03:27:21.070Z,7.07
2019-06-10T03:29:53.703Z,6.50
2019-06-10T03:32:33.175Z,6.83
2019-06-10T03:35:04.978Z,6.50
2019-06-10T03:37:35.019Z,6.63
2019-06-10T03:40:07.525Z,6.73
2019-06-10T03:42:39.631Z,6.70
2019-06-10T03:45:12.753Z,7.17
2019-06-10T03:47:45.819Z,6.83
2019-06-10T03:50:19.230Z,6.57
2019-06-10T03:52:52.605Z,6.73
2019-06-10T03:55:27.570Z,7.10
2019-06-10T03:57:58.798Z,6.50
2019-06-10T04:00:32.749Z,6.93
2019-06-10T04:03:05.421Z,6.53
2019-06-10T04:05:37.593Z,7.40
2019-06-10T04:08:09.695Z,7.03
2019-06-10T04:10:43.059Z,6.97
2019-06-10T04:13:15.104Z,7.73
2019-06-10T04:15:47.279Z,6.87
2019-06-10T04:18:19.775Z,6.73
2019-06-10T04:20:52.857Z,6.53
2019-06-10T04:23:25.801Z,6.23
2019-06-10T04:25:59.216Z,6.87
2019-06-10T04:28:33.732Z,6.90
2019-06-10T04:31:05.335Z,6.70
2019-06-10T04:33:39.107Z,6.30
2019-06-10T04:36:13.430Z,7.57
2019-06-10T04:38:45.496Z,6.80
2019-06-10T04:41:18.349Z,6.83
2019-06-10T04:43:53.012Z,6.67
2019-06-10T04:46:26.413Z,7.00
2019-06-10T04:48:58.627Z,7.30
2019-06-10T04:51:34.731Z,6.90
2019-06-10T04:54:08.809Z,7.30
2019-06-10T04:56:42.851Z,7.47
2019-06-10T04:59:16.767Z,7.77
2019-06-10T05:01:49.482Z,7.73
2019-06-10T05:04:23.618Z,6.63
2019-06-10T05:06:58.738Z,6.77
2019-06-10T05:09:35.101Z,6.73
2019-06-10T05:12:08.567Z,6.70
2019-06-10T05:14:43.129Z,7.37
2019-06-10T05:17:14.608Z,7.27
2019-06-10T05:19:47.632Z,7.00
2019-06-10T05:22:23.994Z,6.77
2019-06-10T05:24:55.379Z,6.57
2019-06-10T05:27:28.600Z,6.90
2019-06-10T05:30:02.265Z,7.00
2019-06-10T05:32:34.751Z,6.40
2019-06-10T05:35:07.367Z,6.70
2019-06-10T05:37:42.356Z,6.43
2019-06-10T05:40:15.346Z,6.70
2019-06-10T05:42:47.420Z,6.43
2019-06-10T05:45:19.862Z,6.30
2019-06-10T05:47:53.095Z,6.23
2019-06-10T05:50:26.466Z,6.80
2019-06-10T05:52:59.000Z,6.77
2019-06-10T05:55:33.483Z,6.30
2019-06-10T05:58:05.705Z,6.47
2019-06-10T06:00:37.836Z,6.80
2019-06-10T06:03:12.052Z,7.07
2019-06-10T06:05:44.047Z,6.33
2019-06-10T06:08:16.571Z,6.43
2019-06-10T06:10:49.425Z,6.80
2019-06-10T06:13:23.204Z,6.60
2019-06-10T06:15:55.620Z,5.83
2019-06-10T06:18:28.129Z,6.40
2019-06-10T06:21:19.531Z,6.40
2019-06-10T06:23:37.029Z,6.40
2019-06-10T06:26:08.817Z,6.93
2019-06-10T06:28:43.044Z,6.30
2019-06-10T06:31:15.555Z,6.57
2019-06-10T06:33:48.022Z,5.73
2019-06-10T06:36:22.402Z,5.90
2019-06-10T06:38:54.446Z,6.00
2019-06-10T06:41:27.433Z,6.13
2019-06-10T06:44:02.131Z,6.00
2019-06-10T06:46:36.592Z,5.60
2019-06-10T06:49:08.155Z,6.27
2019-06-10T06:51:51.934Z,7.03
2019-06-10T06:54:14.999Z,6.50
2019-06-10T06:56:47.157Z,6.40
2019-06-10T06:59:19.600Z,5.93
2019-06-10T07:01:52.502Z,5.60
2019-06-10T07:04:26.006Z,5.07
2019-06-10T07:06:58.736Z,4.40
2019-06-10T07:09:34.622Z,4.47
2019-06-10T07:12:07.324Z,4.50
2019-06-10T07:14:44.792Z,4.97
2019-06-10T07:17:15.974Z,4.73
2019-06-10T07:19:48.254Z,4.50
2019-06-10T07:22:23.135Z,4.00
2019-06-10T07:24:54.678Z,4.37
2019-06-10T07:27:28.585Z,4.10
2019-06-10T07:30:11.279Z,3.93
2019-06-10T07:32:38.765Z,3.60
2019-06-10T07:35:12.847Z,3.50
2019-06-10T07:37:45.823Z,3.80
2019-06-10T07:40:19.029Z,4.20
2019-06-10T07:42:53.098Z,3.73
2019-06-10T07:45:25.034Z,3.23
2019-06-10T07:47:57.009Z,2.93
2019-06-10T07:50:30.065Z,2.73
2019-06-10T07:53:02.704Z,2.90
2019-06-10T07:55:36.658Z,3.00
2019-06-10T07:58:09.624Z,2.90
2019-06-10T08:00:46.563Z,3.03
2019-06-10T08:03:16.332Z,3.00
2019-06-10T08:05:49.412Z,3.20
2019-06-10T08:08:23.440Z,3.70
2019-06-10T08:10:55.809Z,3.80
2019-06-10T08:13:32.267Z,4.00
2019-06-10T08:16:04.416Z,3.60
2019-06-10T08:18:49.784Z,3.50
2019-06-10T08:21:12.313Z,3.40
2019-06-10T08:23:47.379Z,3.27
2019-06-10T08:26:19.032Z,3.63
2019-06-10T08:28:53.127Z,3.50
2019-06-10T08:31:27.889Z,3.23
2019-06-10T08:34:02.757Z,3.03
2019-06-10T08:36:33.738Z,3.30
2019-06-10T08:39:11.187Z,3.40
2019-06-10T08:41:45.554Z,3.40
2019-06-10T08:44:16.532Z,3.43
2019-06-10T08:46:54.341Z,3.30
2019-06-10T08:49:26.463Z,3.08
2019-06-10T08:51:59.111Z,3.15
2019-06-10T08:54:32.437Z,3.17
2019-06-10T08:57:05.135Z,2.80
2019-06-10T08:59:39.689Z,2.67
2019-06-10T09:02:12.475Z,2.62
2019-06-10T09:04:48.490Z,3.12
2019-06-10T09:07:19.272Z,3.65
2019-06-10T09:09:54.011Z,3.20
2019-06-10T09:12:32.494Z,3.62
2019-06-10T09:15:03.754Z,3.30
2019-06-10T09:17:36.732Z,3.17
2019-06-10T09:20:12.860Z,3.22
2019-06-10T09:22:54.375Z,3.05
2019-06-10T09:25:22.396Z,3.33
2019-06-10T09:27:54.754Z,3.10
2019-06-10T09:30:29.022Z,2.95
2019-06-10T09:33:04.283Z,3.20
2019-06-10T09:35:35.889Z,2.83
2019-06-10T09:38:08.311Z,2.75
2019-06-10T09:41:00.355Z,3.17
2019-06-10T09:43:27.028Z,2.80
2019-06-10T09:45:59.275Z,3.20
2019-06-10T09:48:33.650Z,3.35
2019-06-10T09:51:06.496Z,2.90
2019-06-10T09:53:42.733Z,3.40
2019-06-10T09:56:12.913Z,3.20
2019-06-10T09:58:55.077Z,3.10
2019-06-10T10:01:26.214Z,3.12
2019-06-10T10:04:00.520Z,3.37
2019-06-10T10:06:33.606Z,3.67
2019-06-10T10:09:08.396Z,3.90
2019-06-10T10:11:44.100Z,3.35
2019-06-10T10:14:16.102Z,3.72
2019-06-10T10:16:55.146Z,2.90
2019-06-10T10:19:23.306Z,3.77
2019-06-10T10:21:58.405Z,7.12
2019-06-10T10:24:34.087Z,5.35
2019-06-10T10:27:09.281Z,6.15
2019-06-10T10:29:39.340Z,4.50
2019-06-10T10:32:13.161Z,3.58
2019-06-10T10:34:48.272Z,4.10
2019-06-10T10:37:22.747Z,4.42
2019-06-10T10:39:56.601Z,2.90
2019-06-10T10:42:44.622Z,3.15
2019-06-10T10:45:05.330Z,3.17
2019-06-10T10:47:37.777Z,3.17
2019-06-10T10:50:13.969Z,2.60
2019-06-10T10:52:49.939Z,2.50
2019-06-10T10:55:23.709Z,3.10
2019-06-10T10:57:56.427Z,2.60
2019-06-10T11:00:37.319Z,2.60
2019-06-10T11:03:06.656Z,2.80
2019-06-10T11:05:38.812Z,2.52
2019-06-10T11:08:13.520Z,2.75
2019-06-10T11:10:48.204Z,2.70
2019-06-10T11:13:22.322Z,3.45
2019-06-10T11:15:56.396Z,2.50
2019-06-10T11:18:34.439Z,2.80
2019-06-10T11:21:07.969Z,2.70
2019-06-10T11:23:40.085Z,2.62
2019-06-10T11:26:13.085Z,2.67
2019-06-10T11:28:47.433Z,2.77
2019-06-10T11:31:22.566Z,2.60
2019-06-10T11:33:57.881Z,2.70
2019-06-10T11:36:30.157Z,2.50
2019-06-10T11:39:02.981Z,2.60
2019-06-10T11:41:40.093Z,2.60
2019-06-10T11:44:13.450Z,2.35
2019-06-10T11:46:46.676Z,2.50
2019-06-10T11:49:18.945Z,2.62
2019-06-10T11:51:53.649Z,2.60
2019-06-10T11:54:25.439Z,2.30
2019-06-10T11:56:58.580Z,2.90
2019-06-10T11:59:32.765Z,2.30
2019-06-10T12:02:06.249Z,2.67
2019-06-10T12:04:40.270Z,2.62
2019-06-10T12:07:13.284Z,2.60
2019-06-10T12:09:45.501Z,2.67
2019-06-10T12:12:18.106Z,2.52
2019-06-10T12:14:54.801Z,2.50
2019-06-10T12:17:41.112Z,2.50
2019-06-10T12:20:02.495Z,2.50
2019-06-10T12:22:33.063Z,2.70
2019-06-10T12:25:30.329Z,2.60
2019-06-10T12:27:43.325Z,2.37
2019-06-10T12:30:17.309Z,2.37
2019-06-10T12:32:50.524Z,2.17
2019-06-10T12:35:23.516Z,2.60
2019-06-10T12:37:59.498Z,2.08
2019-06-10T12:40:30.496Z,2.40
2019-06-10T12:43:06.388Z,2.42
2019-06-10T12:45:36.348Z,2.42
2019-06-10T12:48:09.778Z,2.37
2019-06-10T12:50:42.869Z,2.30
2019-06-10T12:53:16.242Z,2.35
2019-06-10T12:55:48.361Z,2.33
2019-06-10T12:58:22.570Z,2.37
2019-06-10T13:00:55.554Z,2.33
2019-06-10T13:03:27.814Z,2.20
2019-06-10T13:06:06.664Z,2.17
2019-06-10T13:08:37.075Z,2.67
2019-06-10T13:11:09.458Z,2.33
2019-06-10T13:13:42.701Z,2.25
2019-06-10T13:16:15.715Z,2.37
2019-06-10T13:18:48.828Z,2.33
2019-06-10T13:21:22.739Z,2.17
2019-06-10T13:23:57.415Z,2.35
2019-06-10T13:26:32.911Z,2.08
2019-06-10T13:29:06.974Z,2.12
2019-06-10T13:31:37.707Z,2.33
2019-06-10T13:34:12.104Z,2.22
2019-06-10T13:36:43.633Z,2.30
2019-06-10T13:39:16.972Z,2.17
2019-06-10T13:41:49.496Z,2.50
2019-06-10T13:44:23.736Z,2.58
2019-06-10T13:46:56.628Z,2.95
2019-06-10T13:49:28.974Z,2.55
2019-06-10T13:52:05.129Z,2.70
2019-06-10T13:54:34.952Z,2.70
2019-06-10T13:57:09.244Z,2.67
2019-06-10T13:59:45.152Z,2.67
2019-06-10T14:02:15.519Z,2.75
2019-06-10T14:04:48.151Z,2.75
2019-06-10T14:07:23.198Z,2.70
2019-06-10T14:09:54.497Z,2.40
2019-06-10T14:12:26.967Z,2.50
2019-06-10T14:14:59.192Z,2.65
2019-06-10T14:17:32.908Z,2.58
2019-06-10T14:20:06.936Z,2.45
2019-06-10T14:22:42.409Z,2.65
2019-06-10T14:25:16.814Z,2.55
2019-06-10T14:27:49.715Z,2.55
2019-06-10T14:30:23.080Z,2.50
2019-06-10T14:32:55.397Z,2.60
2019-06-10T14:35:27.550Z,2.72
2019-06-10T14:38:03.495Z,2.47
2019-06-10T14:40:35.485Z,2.30
2019-06-10T14:43:08.273Z,2.45
2019-06-10T14:45:42.395Z,2.37
2019-06-10T14:48:17.231Z,2.27
2019-06-10T14:50:49.856Z,2.20
2019-06-10T14:53:23.161Z,2.37
2019-06-10T14:55:55.625Z,2.47
2019-06-10T14:58:27.680Z,2.37
2019-06-10T15:01:00.211Z,2.40
2019-06-10T15:03:32.862Z,2.50
2019-06-10T15:06:07.052Z,2.60
2019-06-10T15:08:39.508Z,2.23
2019-06-10T15:11:11.770Z,2.33
2019-06-10T15:13:43.970Z,2.50
2019-06-10T15:16:16.487Z,2.70
2019-06-10T15:18:49.557Z,2.40
2019-06-10T15:21:23.155Z,2.30
2019-06-10T15:23:55.951Z,2.50
2019-06-10T15:26:28.120Z,2.80
2019-06-10T15:29:02.788Z,2.50
2019-06-10T15:31:36.027Z,2.67
2019-06-10T15:34:08.598Z,2.77
2019-06-10T15:36:43.212Z,2.73
2019-06-10T15:39:19.349Z,2.60
2019-06-10T15:41:52.168Z,2.90
2019-06-10T15:44:47.970Z,2.60
2019-06-10T15:46:57.658Z,2.80
2019-06-10T15:49:32.643Z,2.70
2019-06-10T15:52:04.871Z,2.70
2019-06-10T15:54:38.259Z,2.70
2019-06-10T15:57:26.489Z,3.07
2019-06-10T15:59:45.050Z,3.20
2019-06-10T16:02:19.484Z,3.50
2019-06-10T16:05:05.182Z,3.40
2019-06-10T16:07:42.208Z,3.77
2019-06-10T16:10:17.814Z,3.40
2019-06-10T16:12:47.700Z,3.60
2019-06-10T16:15:24.179Z,3.30
2019-06-10T16:17:54.070Z,3.50
2019-06-10T16:20:26.921Z,3.53
2019-06-10T16:22:59.542Z,3.00
2019-06-10T16:25:31.674Z,3.53
2019-06-10T16:28:04.358Z,3.77
2019-06-10T16:30:37.026Z,3.50
2019-06-10T16:33:09.158Z,3.83
2019-06-10T16:35:41.514Z,3.73
2019-06-10T16:38:15.131Z,3.73
2019-06-10T16:40:47.957Z,4.27
2019-06-10T16:43:24.012Z,5.00
2019-06-10T16:45:54.890Z,5.80
2019-06-10T16:48:27.426Z,5.20
2019-06-10T16:50:59.482Z,5.57
2019-06-10T16:53:35.190Z,5.27
2019-06-10T16:56:05.554Z,5.03
2019-06-10T16:58:38.184Z,5.20
2019-06-10T17:01:12.428Z,5.10
2019-06-10T17:03:44.697Z,5.03
2019-06-10T17:06:17.795Z,5.20
2019-06-10T17:08:52.132Z,4.80
2019-06-10T17:11:24.170Z,5.10
2019-06-10T17:13:56.913Z,4.70
2019-06-10T17:16:29.646Z,4.50
2019-06-10T17:19:02.454Z,4.77
2019-06-10T17:21:36.022Z,4.30
2019-06-10T17:24:08.841Z,4.43
2019-06-10T17:26:42.759Z,4.70
2019-06-10T17:29:15.756Z,3.97
2019-06-10T17:31:49.387Z,4.33
2019-06-10T17:34:24.584Z,4.27
2019-06-10T17:36:59.377Z,4.50
2019-06-10T17:39:32.074Z,4.47
2019-06-10T17:42:06.611Z,4.97
2019-06-10T17:44:38.696Z,5.40
2019-06-10T17:47:13.077Z,5.20
2019-06-10T17:49:44.979Z,5.47
2019-06-10T17:52:19.343Z,5.80
2019-06-10T17:54:53.545Z,6.43
2019-06-10T17:57:29.663Z,6.60
2019-06-10T18:00:10.915Z,7.10
2019-06-10T18:02:43.752Z,7.03
2019-06-10T18:05:27.178Z,7.40
2019-06-10T18:08:02.332Z,6.60
2019-06-10T18:10:37.151Z,7.20
2019-06-10T18:13:16.288Z,7.20
2019-06-10T18:15:44.447Z,7.03
2019-06-10T18:18:16.391Z,6.90
2019-06-10T18:20:48.482Z,5.97
2019-06-10T18:23:22.928Z,7.13
2019-06-10T18:25:55.413Z,6.67
2019-06-10T18:28:29.257Z,7.93
2019-06-10T18:31:01.216Z,8.60
2019-06-10T18:33:36.032Z,8.67
2019-06-10T18:36:08.555Z,8.87
2019-06-10T18:38:43.132Z,10.07
2019-06-10T18:41:15.625Z,9.03
2019-06-10T18:43:47.570Z,9.50
2019-06-10T18:46:23.034Z,9.67
2019-06-10T18:48:54.529Z,9.13
2019-06-10T18:51:27.499Z,8.60
2019-06-10T18:53:59.400Z,8.17
2019-06-10T18:56:35.654Z,8.23
2019-06-10T18:59:26.443Z,8.70
2019-06-10T19:02:05.445Z,9.00
2019-06-10T19:04:36.490Z,9.77
2019-06-10T19:07:08.558Z,9.43
2019-06-10T19:09:46.986Z,9.77
2019-06-10T19:12:15.319Z,11.03
2019-06-10T19:14:48.220Z,11.57
2019-06-10T19:17:22.926Z,11.07
2019-06-10T19:19:54.971Z,10.97
2019-06-10T19:22:26.875Z,10.67
2019-06-10T19:25:00.373Z,11.37
2019-06-10T19:27:36.876Z,11.40
2019-06-10T19:30:10.194Z,11.13
2019-06-10T19:32:44.296Z,11.20
2019-06-10T19:35:17.148Z,11.30
2019-06-10T19:37:49.697Z,11.97
2019-06-10T19:40:22.843Z,12.20
2019-06-10T19:42:55.508Z,12.50
2019-06-10T19:45:27.506Z,13.00
2019-06-10T19:47:59.407Z,12.70
2019-06-10T19:50:33.063Z,12.97
2019-06-10T19:53:08.484Z,13.43
2019-06-10T19:55:46.137Z,13.50
2019-06-10T19:58:18.178Z,13.93
2019-06-10T20:00:54.031Z,15.03
2019-06-10T20:03:28.635Z,14.33
2019-06-10T20:06:02.906Z,14.77
2019-06-10T20:08:36.103Z,15.17
2019-06-10T20:11:12.306Z,14.23
2019-06-10T20:13:43.669Z,14.47
2019-06-10T20:16:16.820Z,14.13
2019-06-10T20:18:53.608Z,13.23
2019-06-10T20:21:24.630Z,12.90
2019-06-10T20:23:58.616Z,11.80
2019-06-10T20:26:32.899Z,13.43
2019-06-10T20:29:05.922Z,13.60
2019-06-10T20:31:38.455Z,13.17
2019-06-10T20:34:13.107Z,13.57
2019-06-10T20:36:47.491Z,14.37
2019-06-10T20:39:24.461Z,13.80
2019-06-10T20:41:55.710Z,14.53
2019-06-10T20:44:29.074Z,13.47
2019-06-10T20:47:00.975Z,13.87
2019-06-10T20:49:34.892Z,14.03
2019-06-10T20:52:11.455Z,15.10
2019-06-10T20:54:43.398Z,13.53
2019-06-10T20:57:16.806Z,13.33
2019-06-10T20:59:49.844Z,13.90
2019-06-10T21:02:23.786Z,14.57
2019-06-10T21:04:56.810Z,12.63
2019-06-10T21:07:32.346Z,13.60
2019-06-10T21:10:05.940Z,14.23
2019-06-10T21:12:39.722Z,13.40
2019-06-10T21:15:12.566Z,13.60
2019-06-10T21:17:46.433Z,12.43
2019-06-10T21:20:18.699Z,13.40
2019-06-10T21:22:51.442Z,14.87
2019-06-10T21:25:26.293Z,13.60
2019-06-10T21:27:58.744Z,13.93
2019-06-10T21:30:40.547Z,14.43
2019-06-10T21:33:05.585Z,13.27
2019-06-10T21:35:39.220Z,14.27
2019-06-10T21:38:16.800Z,13.30
2019-06-10T21:40:49.694Z,13.33
2019-06-10T21:43:22.452Z,14.57
2019-06-10T21:45:57.569Z,15.03
2019-06-10T21:48:28.854Z,15.77
2019-06-10T21:51:02.239Z,13.90
2019-06-10T21:53:34.639Z,15.00
2019-06-10T21:56:06.470Z,14.63
2019-06-10T21:58:38.551Z,16.20
2019-06-10T22:01:16.751Z,14.67
2019-06-10T22:03:53.205Z,15.97
2019-06-10T22:06:22.902Z,16.40
2019-06-10T22:08:57.827Z,16.70
2019-06-10T22:11:31.081Z,18.67
2019-06-10T22:14:04.475Z,17.00
2019-06-10T22:16:38.081Z,14.87
2019-06-10T22:19:12.824Z,15.70
2019-06-10T22:21:44.861Z,18.03
2019-06-10T22:24:17.413Z,16.83
2019-06-10T22:26:57.163Z,18.00
2019-06-10T22:29:32.150Z,17.43
2019-06-10T22:32:05.100Z,16.20
2019-06-10T22:34:37.963Z,15.27
2019-06-10T22:37:12.509Z,15.87
2019-06-10T22:39:45.676Z,16.90
2019-06-10T22:42:19.296Z,15.67
2019-06-10T22:44:54.549Z,14.97
2019-06-10T22:47:25.943Z,14.93
2019-06-10T22:49:59.819Z,15.90
2019-06-10T22:52:33.996Z,15.90
2019-06-10T22:55:06.235Z,15.70
2019-06-10T22:57:44.056Z,16.23
2019-06-10T23:00:17.154Z,16.07
2019-06-10T23:02:53.332Z,15.33
2019-06-10T23:05:25.437Z,14.40
2019-06-10T23:08:16.316Z,13.50
2019-06-10T23:10:48.589Z,13.60
2019-06-10T23:13:20.325Z,13.57
2019-06-10T23:15:54.006Z,13.73
2019-06-10T23:18:26.169Z,12.90
2019-06-10T23:21:00.679Z,13.53
2019-06-10T23:23:33.663Z,13.73
2019-06-10T23:26:05.788Z,13.20
2019-06-10T23:28:38.503Z,12.23
2019-06-10T23:31:12.800Z,13.73
2019-06-10T23:33:44.653Z,12.47
2019-06-10T23:36:17.276Z,12.80
2019-06-10T23:38:52.982Z,12.87
2019-06-10T23:41:25.572Z,13.47
2019-06-10T23:43:57.730Z,12.20
2019-06-10T23:46:32.058Z,14.03
2019-06-10T23:49:05.213Z,13.77
2019-06-10T23:51:37.195Z,13.57
2019-06-10T23:54:09.721Z,13.53
2019-06-10T23:56:42.820Z,13.73
2019-06-10T23:59:16.230Z,12.60
